sensor_id;sensor_type;location;lat;lon;timestamp;pressure;altitude;pressure_sealevel;temperature;humidity
6134;BME280;3098;42.678;23.364;2023-07-02T00:02:15;94165.56;;;16.88;100.00
6134;BME280;3098;42.678;23.364;2023-07-02T00:04:43;94327.13;;;17.82;100.00
6134;BME280;3098;42.678;23.364;2023-07-02T00:07:10;94338.00;;;17.96;100.00
6134;BME280;3098;42.678;23.364;2023-07-02T00:09:37;94285.38;;;17.51;100.00
6134;BME280;3098;42.678;23.364;2023-07-02T00:12:06;94284.06;;;17.67;100.00
6134;BME280;3098;42.678;23.364;2023-07-02T00:14:33;94296.94;;;17.92;100.00
6134;BME280;3098;42.678;23.364;2023-07-02T00:17:00;94326.25;;;18.11;100.00
6134;BME280;3098;42.678;23.364;2023-07-02T00:19:27;94325.81;;;18.02;100.00
6134;BME280;3098;42.678;23.364;2023-07-02T00:21:54;94299.63;;;17.92;100.00
6134;BME280;3098;42.678;23.364;2023-07-02T00:24:21;94332.06;;;18.13;100.00
6134;BME280;3098;42.678;23.364;2023-07-02T00:26:47;94302.50;;;18.09;100.00
6134;BME280;3098;42.678;23.364;2023-07-02T00:29:16;94261.28;;;17.88;100.00
6134;BME280;3098;42.678;23.364;2023-07-02T00:31:42;94320.63;;;18.23;100.00
6134;BME280;3098;42.678;23.364;2023-07-02T00:34:09;94276.25;;;17.92;100.00
6134;BME280;3098;42.678;23.364;2023-07-02T00:36:36;94329.38;;;18.16;100.00
6134;BME280;3098;42.678;23.364;2023-07-02T00:39:03;94263.88;;;17.80;100.00
6134;BME280;3098;42.678;23.364;2023-07-02T00:41:30;94336.78;;;18.26;100.00
6134;BME280;3098;42.678;23.364;2023-07-02T00:43:57;94325.97;;;18.19;100.00
6134;BME280;3098;42.678;23.364;2023-07-02T00:46:25;94352.28;;;18.44;100.00
6134;BME280;3098;42.678;23.364;2023-07-02T00:48:54;94343.13;;;18.48;100.00
6134;BME280;3098;42.678;23.364;2023-07-02T00:51:22;94346.66;;;18.56;100.00
6134;BME280;3098;42.678;23.364;2023-07-02T00:53:50;94330.41;;;18.42;100.00
6134;BME280;3098;42.678;23.364;2023-07-02T00:56:18;94340.38;;;18.41;100.00
6134;BME280;3098;42.678;23.364;2023-07-02T00:58:46;94303.44;;;17.87;100.00
6134;BME280;3098;42.678;23.364;2023-07-02T01:01:14;94350.50;;;18.18;100.00
6134;BME280;3098;42.678;23.364;2023-07-02T01:03:53;94344.41;;;18.21;100.00
6134;BME280;3098;42.678;23.364;2023-07-02T01:06:23;94337.41;;;18.13;100.00
6134;BME280;3098;42.678;23.364;2023-07-02T01:08:55;94323.97;;;18.09;100.00
6134;BME280;3098;42.678;23.364;2023-07-02T01:11:26;94278.84;;;17.82;100.00
6134;BME280;3098;42.678;23.364;2023-07-02T01:13:58;94329.75;;;18.15;100.00
6134;BME280;3098;42.678;23.364;2023-07-02T01:16:27;94325.81;;;18.02;100.00
6134;BME280;3098;42.678;23.364;2023-07-02T01:18:57;94338.44;;;18.01;100.00
6134;BME280;3098;42.678;23.364;2023-07-02T01:21:26;94331.03;;;17.91;100.00
6134;BME280;3098;42.678;23.364;2023-07-02T01:23:53;94338.19;;;18.13;100.00
6134;BME280;3098;42.678;23.364;2023-07-02T01:26:20;94253.41;;;17.35;100.00
6134;BME280;3098;42.678;23.364;2023-07-02T01:28:47;94293.59;;;17.65;100.00
6134;BME280;3098;42.678;23.364;2023-07-02T01:31:16;94335.63;;;17.87;100.00
6134;BME280;3098;42.678;23.364;2023-07-02T01:33:43;94335.81;;;18.08;100.00
6134;BME280;3098;42.678;23.364;2023-07-02T01:36:10;94297.63;;;17.82;100.00
6134;BME280;3098;42.678;23.364;2023-07-02T01:38:39;94261.88;;;17.74;100.00
6134;BME280;3098;42.678;23.364;2023-07-02T01:41:06;94310.00;;;17.93;100.00
6134;BME280;3098;42.678;23.364;2023-07-02T01:43:33;94315.97;;;17.79;100.00
6134;BME280;3098;42.678;23.364;2023-07-02T01:46:00;94310.53;;;17.72;100.00
6134;BME280;3098;42.678;23.364;2023-07-02T01:48:27;94288.19;;;17.61;100.00
6134;BME280;3098;42.678;23.364;2023-07-02T01:50:54;94317.66;;;17.58;100.00
6134;BME280;3098;42.678;23.364;2023-07-02T01:53:21;94309.06;;;17.49;100.00
6134;BME280;3098;42.678;23.364;2023-07-02T01:55:49;94328.31;;;17.54;100.00
6134;BME280;3098;42.678;23.364;2023-07-02T01:58:16;94324.91;;;17.28;100.00
6134;BME280;3098;42.678;23.364;2023-07-02T02:00:43;94322.19;;;17.24;100.00
6134;BME280;3098;42.678;23.364;2023-07-02T02:03:10;94291.75;;;17.09;100.00
6134;BME280;3098;42.678;23.364;2023-07-02T02:05:36;94246.94;;;16.80;100.00
6134;BME280;3098;42.678;23.364;2023-07-02T02:08:03;94318.59;;;17.13;100.00
6134;BME280;3098;42.678;23.364;2023-07-02T02:10:30;94299.50;;;16.88;100.00
6134;BME280;3098;42.678;23.364;2023-07-02T02:12:59;94298.16;;;16.75;100.00
6134;BME280;3098;42.678;23.364;2023-07-02T02:15:26;94318.75;;;16.71;100.00
6134;BME280;3098;42.678;23.364;2023-07-02T02:17:53;94320.59;;;16.67;100.00
6134;BME280;3098;42.678;23.364;2023-07-02T02:20:20;94173.09;;;15.51;100.00
6134;BME280;3098;42.678;23.364;2023-07-02T02:22:47;94317.44;;;16.39;100.00
6134;BME280;3098;42.678;23.364;2023-07-02T02:25:14;94328.31;;;16.49;100.00
6134;BME280;3098;42.678;23.364;2023-07-02T02:27:40;94285.00;;;16.18;100.00
6134;BME280;3098;42.678;23.364;2023-07-02T02:30:10;94329.97;;;16.54;100.00
6134;BME280;3098;42.678;23.364;2023-07-02T02:32:37;94322.81;;;16.61;100.00
6134;BME280;3098;42.678;23.364;2023-07-02T02:35:05;94333.63;;;16.69;100.00
6134;BME280;3098;42.678;23.364;2023-07-02T02:37:33;94309.72;;;16.34;100.00
6134;BME280;3098;42.678;23.364;2023-07-02T02:40:00;94342.63;;;16.34;100.00
6134;BME280;3098;42.678;23.364;2023-07-02T02:42:28;94341.75;;;16.30;100.00
6134;BME280;3098;42.678;23.364;2023-07-02T02:44:55;94341.44;;;16.32;100.00
6134;BME280;3098;42.678;23.364;2023-07-02T02:47:23;94321.47;;;16.29;100.00
6134;BME280;3098;42.678;23.364;2023-07-02T02:49:50;94330.88;;;16.42;100.00
6134;BME280;3098;42.678;23.364;2023-07-02T02:52:17;94302.72;;;16.26;100.00
6134;BME280;3098;42.678;23.364;2023-07-02T02:54:45;94326.91;;;16.55;100.00
6134;BME280;3098;42.678;23.364;2023-07-02T02:57:12;94349.47;;;16.54;100.00
6134;BME280;3098;42.678;23.364;2023-07-02T02:59:40;94316.19;;;16.33;100.00
6134;BME280;3098;42.678;23.364;2023-07-02T03:02:07;94322.50;;;16.44;100.00
6134;BME280;3098;42.678;23.364;2023-07-02T03:04:36;94357.28;;;16.63;100.00
6134;BME280;3098;42.678;23.364;2023-07-02T03:07:05;94308.63;;;16.38;100.00
6134;BME280;3098;42.678;23.364;2023-07-02T03:09:32;94353.19;;;16.73;100.00
6134;BME280;3098;42.678;23.364;2023-07-02T03:11:59;94358.25;;;16.78;100.00
6134;BME280;3098;42.678;23.364;2023-07-02T03:14:26;94340.94;;;16.72;100.00
6134;BME280;3098;42.678;23.364;2023-07-02T03:16:53;94359.63;;;16.94;100.00
6134;BME280;3098;42.678;23.364;2023-07-02T03:19:20;94326.63;;;16.87;100.00
6134;BME280;3098;42.678;23.364;2023-07-02T03:21:48;94300.03;;;16.75;100.00
6134;BME280;3098;42.678;23.364;2023-07-02T03:24:15;94301.34;;;16.84;100.00
6134;BME280;3098;42.678;23.364;2023-07-02T03:26:43;94340.63;;;17.29;100.00
6134;BME280;3098;42.678;23.364;2023-07-02T03:29:11;94328.13;;;17.10;100.00
6134;BME280;3098;42.678;23.364;2023-07-02T03:31:39;94309.53;;;16.95;100.00
6134;BME280;3098;42.678;23.364;2023-07-02T03:34:07;94359.03;;;17.31;100.00
6134;BME280;3098;42.678;23.364;2023-07-02T03:36:35;94370.00;;;17.22;100.00
6134;BME280;3098;42.678;23.364;2023-07-02T03:39:03;94332.69;;;17.10;100.00
6134;BME280;3098;42.678;23.364;2023-07-02T03:41:30;94337.78;;;17.48;100.00
6134;BME280;3098;42.678;23.364;2023-07-02T03:43:57;94326.66;;;17.46;100.00
6134;BME280;3098;42.678;23.364;2023-07-02T03:46:24;94329.00;;;17.48;100.00
6134;BME280;3098;42.678;23.364;2023-07-02T03:48:51;94342.97;;;17.60;100.00
6134;BME280;3098;42.678;23.364;2023-07-02T03:51:18;94330.50;;;17.45;100.00
6134;BME280;3098;42.678;23.364;2023-07-02T03:53:45;94339.06;;;17.54;100.00
6134;BME280;3098;42.678;23.364;2023-07-02T03:56:13;94298.56;;;17.33;100.00
6134;BME280;3098;42.678;23.364;2023-07-02T03:58:40;94351.22;;;17.78;100.00
6134;BME280;3098;42.678;23.364;2023-07-02T04:01:08;94309.63;;;17.32;100.00
6134;BME280;3098;42.678;23.364;2023-07-02T04:03:34;94352.16;;;17.59;100.00
6134;BME280;3098;42.678;23.364;2023-07-02T04:06:01;94346.63;;;17.49;100.00
6134;BME280;3098;42.678;23.364;2023-07-02T04:08:31;94259.63;;;16.83;100.00
6134;BME280;3098;42.678;23.364;2023-07-02T04:10:58;94337.13;;;17.25;100.00
6134;BME280;3098;42.678;23.364;2023-07-02T04:13:26;94349.44;;;17.30;100.00
6134;BME280;3098;42.678;23.364;2023-07-02T04:15:54;94366.16;;;17.49;100.00
6134;BME280;3098;42.678;23.364;2023-07-02T04:18:21;94350.25;;;17.34;100.00
6134;BME280;3098;42.678;23.364;2023-07-02T04:20:48;94372.56;;;17.41;100.00
6134;BME280;3098;42.678;23.364;2023-07-02T04:23:15;94383.56;;;17.59;100.00
6134;BME280;3098;42.678;23.364;2023-07-02T04:25:42;94392.63;;;17.51;100.00
6134;BME280;3098;42.678;23.364;2023-07-02T04:28:09;94380.22;;;17.39;100.00
6134;BME280;3098;42.678;23.364;2023-07-02T04:30:37;94391.06;;;17.23;100.00
6134;BME280;3098;42.678;23.364;2023-07-02T04:33:04;94345.91;;;16.96;100.00
6134;BME280;3098;42.678;23.364;2023-07-02T04:35:32;94389.59;;;17.26;100.00
6134;BME280;3098;42.678;23.364;2023-07-02T04:37:59;94334.06;;;16.97;100.00
6134;BME280;3098;42.678;23.364;2023-07-02T04:40:26;94395.41;;;17.32;100.00
6134;BME280;3098;42.678;23.364;2023-07-02T04:42:53;94400.72;;;17.28;100.00
6134;BME280;3098;42.678;23.364;2023-07-02T04:45:23;94403.75;;;17.27;100.00
6134;BME280;3098;42.678;23.364;2023-07-02T04:47:52;94403.28;;;17.21;100.00
6134;BME280;3098;42.678;23.364;2023-07-02T04:50:19;94394.34;;;17.36;100.00
6134;BME280;3098;42.678;23.364;2023-07-02T04:52:46;94386.97;;;17.56;100.00
6134;BME280;3098;42.678;23.364;2023-07-02T04:55:13;94406.59;;;17.63;100.00
6134;BME280;3098;42.678;23.364;2023-07-02T04:57:40;94415.97;;;17.76;100.00
6134;BME280;3098;42.678;23.364;2023-07-02T05:00:08;94413.28;;;17.76;100.00
6134;BME280;3098;42.678;23.364;2023-07-02T05:02:35;94414.81;;;17.77;100.00
6134;BME280;3098;42.678;23.364;2023-07-02T05:05:04;94414.59;;;17.90;100.00
6134;BME280;3098;42.678;23.364;2023-07-02T05:07:31;94413.81;;;17.89;100.00
6134;BME280;3098;42.678;23.364;2023-07-02T05:09:58;94389.50;;;17.75;100.00
6134;BME280;3098;42.678;23.364;2023-07-02T05:12:25;94398.41;;;17.83;100.00
6134;BME280;3098;42.678;23.364;2023-07-02T05:14:52;94421.31;;;18.06;100.00
6134;BME280;3098;42.678;23.364;2023-07-02T05:17:19;94417.03;;;18.02;100.00
6134;BME280;3098;42.678;23.364;2023-07-02T05:19:46;94418.34;;;18.15;100.00
6134;BME280;3098;42.678;23.364;2023-07-02T05:22:14;94424.53;;;18.22;100.00
6134;BME280;3098;42.678;23.364;2023-07-02T05:24:41;94417.41;;;18.37;100.00
6134;BME280;3098;42.678;23.364;2023-07-02T05:27:09;94420.50;;;18.39;100.00
6134;BME280;3098;42.678;23.364;2023-07-02T05:29:36;94417.91;;;18.46;100.00
6134;BME280;3098;42.678;23.364;2023-07-02T05:32:04;94390.03;;;18.21;100.00
6134;BME280;3098;42.678;23.364;2023-07-02T05:34:30;94413.66;;;18.45;100.00
6134;BME280;3098;42.678;23.364;2023-07-02T05:36:57;94408.16;;;18.31;100.00
6134;BME280;3098;42.678;23.364;2023-07-02T05:39:25;94412.00;;;18.30;100.00
6134;BME280;3098;42.678;23.364;2023-07-02T05:41:52;94387.16;;;18.40;100.00
6134;BME280;3098;42.678;23.364;2023-07-02T05:44:19;94342.44;;;18.18;100.00
6134;BME280;3098;42.678;23.364;2023-07-02T05:46:46;94420.69;;;18.97;100.00
6134;BME280;3098;42.678;23.364;2023-07-02T05:49:13;94402.75;;;19.12;100.00
6134;BME280;3098;42.678;23.364;2023-07-02T05:51:40;94333.44;;;18.80;100.00
6134;BME280;3098;42.678;23.364;2023-07-02T05:54:07;94353.63;;;19.15;100.00
6134;BME280;3098;42.678;23.364;2023-07-02T05:56:35;94405.84;;;19.72;100.00
6134;BME280;3098;42.678;23.364;2023-07-02T05:59:02;94401.38;;;20.00;100.00
6134;BME280;3098;42.678;23.364;2023-07-02T06:01:29;94385.66;;;20.17;100.00
6134;BME280;3098;42.678;23.364;2023-07-02T06:03:56;94385.34;;;20.29;100.00
6134;BME280;3098;42.678;23.364;2023-07-02T06:06:23;94379.19;;;20.28;100.00
6134;BME280;3098;42.678;23.364;2023-07-02T06:08:51;94379.88;;;20.15;100.00
6134;BME280;3098;42.678;23.364;2023-07-02T06:11:17;94359.97;;;21.04;100.00
6134;BME280;3098;42.678;23.364;2023-07-02T06:13:46;94370.97;;;22.01;100.00
6134;BME280;3098;42.678;23.364;2023-07-02T06:16:13;94367.66;;;22.45;100.00
6134;BME280;3098;42.678;23.364;2023-07-02T06:18:40;94343.69;;;21.71;100.00
6134;BME280;3098;42.678;23.364;2023-07-02T06:21:06;94358.84;;;20.94;100.00
6134;BME280;3098;42.678;23.364;2023-07-02T06:23:40;94331.50;;;20.78;100.00
6134;BME280;3098;42.678;23.364;2023-07-02T06:26:08;94314.47;;;21.45;100.00
6134;BME280;3098;42.678;23.364;2023-07-02T06:28:34;94350.97;;;21.88;100.00
6134;BME280;3098;42.678;23.364;2023-07-02T06:31:03;94338.41;;;21.39;100.00
6134;BME280;3098;42.678;23.364;2023-07-02T06:33:30;94332.66;;;21.05;100.00
6134;BME280;3098;42.678;23.364;2023-07-02T06:35:57;94339.16;;;21.33;100.00
6134;BME280;3098;42.678;23.364;2023-07-02T06:38:23;94325.59;;;21.61;100.00
6134;BME280;3098;42.678;23.364;2023-07-02T06:40:51;94355.50;;;22.05;100.00
6134;BME280;3098;42.678;23.364;2023-07-02T06:43:18;94356.47;;;21.46;100.00
6134;BME280;3098;42.678;23.364;2023-07-02T06:45:45;94321.84;;;21.23;100.00
6134;BME280;3098;42.678;23.364;2023-07-02T06:48:13;94341.31;;;21.84;100.00
6134;BME280;3098;42.678;23.364;2023-07-02T06:50:43;94350.22;;;21.88;100.00
6134;BME280;3098;42.678;23.364;2023-07-02T06:53:12;94344.06;;;21.69;100.00
6134;BME280;3098;42.678;23.364;2023-07-02T06:55:39;94351.22;;;22.18;100.00
6134;BME280;3098;42.678;23.364;2023-07-02T06:58:06;94331.69;;;21.93;100.00
6134;BME280;3098;42.678;23.364;2023-07-02T07:00:34;94345.19;;;21.93;100.00
6134;BME280;3098;42.678;23.364;2023-07-02T07:03:02;94327.06;;;21.90;100.00
6134;BME280;3098;42.678;23.364;2023-07-02T07:05:31;94359.84;;;22.58;100.00
6134;BME280;3098;42.678;23.364;2023-07-02T07:07:59;94341.44;;;22.97;100.00
6134;BME280;3098;42.678;23.364;2023-07-02T07:10:29;94342.81;;;23.57;100.00
6134;BME280;3098;42.678;23.364;2023-07-02T07:13:00;94349.59;;;23.75;100.00
6134;BME280;3098;42.678;23.364;2023-07-02T07:15:31;94347.53;;;24.17;100.00
6134;BME280;3098;42.678;23.364;2023-07-02T07:17:58;94345.41;;;24.31;99.08
6134;BME280;3098;42.678;23.364;2023-07-02T07:20:25;94309.72;;;24.06;100.00
6134;BME280;3098;42.678;23.364;2023-07-02T07:22:54;94308.63;;;24.84;94.56
6134;BME280;3098;42.678;23.364;2023-07-02T07:25:20;94327.94;;;25.75;90.13
6134;BME280;3098;42.678;23.364;2023-07-02T07:27:47;94355.72;;;23.79;100.00
6134;BME280;3098;42.678;23.364;2023-07-02T07:30:14;94359.31;;;24.03;100.00
6134;BME280;3098;42.678;23.364;2023-07-02T07:32:47;94326.69;;;24.14;97.07
6134;BME280;3098;42.678;23.364;2023-07-02T07:35:15;94307.69;;;24.67;94.04
6134;BME280;3098;42.678;23.364;2023-07-02T07:37:41;94344.75;;;24.77;94.94
6134;BME280;3098;42.678;23.364;2023-07-02T07:40:11;94317.19;;;24.79;93.73
6134;BME280;3098;42.678;23.364;2023-07-02T07:42:38;94331.50;;;24.56;94.52
6134;BME280;3098;42.678;23.364;2023-07-02T07:45:05;94336.19;;;24.25;96.34
6134;BME280;3098;42.678;23.364;2023-07-02T07:47:32;94317.63;;;23.93;99.13
6134;BME280;3098;42.678;23.364;2023-07-02T07:50:00;94295.50;;;23.68;100.00
6134;BME280;3098;42.678;23.364;2023-07-02T07:52:27;94336.47;;;24.34;97.25
6134;BME280;3098;42.678;23.364;2023-07-02T07:54:54;94326.28;;;24.15;98.81
6134;BME280;3098;42.678;23.364;2023-07-02T07:57:23;94345.41;;;24.58;99.29
6134;BME280;3098;42.678;23.364;2023-07-02T07:59:50;94351.44;;;24.96;96.54
6134;BME280;3098;42.678;23.364;2023-07-02T08:02:17;94332.22;;;24.87;94.70
6134;BME280;3098;42.678;23.364;2023-07-02T08:04:44;94303.69;;;25.45;90.53
6134;BME280;3098;42.678;23.364;2023-07-02T08:07:11;94351.47;;;25.19;91.58
6134;BME280;3098;42.678;23.364;2023-07-02T08:09:38;94223.81;;;24.56;90.26
6134;BME280;3098;42.678;23.364;2023-07-02T08:12:05;94357.38;;;26.55;82.14
6134;BME280;3098;42.678;23.364;2023-07-02T08:14:34;94341.59;;;25.71;84.83
6134;BME280;3098;42.678;23.364;2023-07-02T08:17:01;94347.13;;;26.27;83.11
6134;BME280;3098;42.678;23.364;2023-07-02T08:19:28;94340.94;;;26.43;81.37
6134;BME280;3098;42.678;23.364;2023-07-02T08:21:55;94355.50;;;26.52;80.21
6134;BME280;3098;42.678;23.364;2023-07-02T08:24:22;94281.94;;;25.48;81.59
6134;BME280;3098;42.678;23.364;2023-07-02T08:26:49;94347.75;;;26.15;79.55
6134;BME280;3098;42.678;23.364;2023-07-02T08:29:16;94291.19;;;24.58;84.16
6134;BME280;3098;42.678;23.364;2023-07-02T08:31:45;94338.72;;;25.16;86.20
6134;BME280;3098;42.678;23.364;2023-07-02T08:34:11;94325.22;;;25.75;81.15
6134;BME280;3098;42.678;23.364;2023-07-02T08:36:38;94344.88;;;26.02;78.70
6134;BME280;3098;42.678;23.364;2023-07-02T08:39:05;94326.28;;;26.56;76.77
6134;BME280;3098;42.678;23.364;2023-07-02T08:41:41;94335.91;;;27.42;71.87
6134;BME280;3098;42.678;23.364;2023-07-02T08:44:10;94346.44;;;27.23;72.38
6134;BME280;3098;42.678;23.364;2023-07-02T08:46:38;94340.47;;;25.89;77.35
6134;BME280;3098;42.678;23.364;2023-07-02T08:49:06;94324.53;;;26.30;75.54
6134;BME280;3098;42.678;23.364;2023-07-02T08:51:34;94321.50;;;26.76;72.33
6134;BME280;3098;42.678;23.364;2023-07-02T08:54:01;94338.69;;;26.73;71.01
6134;BME280;3098;42.678;23.364;2023-07-02T08:56:28;94344.38;;;26.27;75.41
6134;BME280;3098;42.678;23.364;2023-07-02T08:58:55;94323.81;;;26.62;71.04
6134;BME280;3098;42.678;23.364;2023-07-02T09:01:22;94330.81;;;26.27;73.02
6134;BME280;3098;42.678;23.364;2023-07-02T09:03:49;94333.56;;;26.59;72.81
6134;BME280;3098;42.678;23.364;2023-07-02T09:06:18;94326.22;;;27.08;68.27
6134;BME280;3098;42.678;23.364;2023-07-02T09:08:45;94335.50;;;27.84;66.62
6134;BME280;3098;42.678;23.364;2023-07-02T09:11:13;94294.13;;;27.89;64.78
6134;BME280;3098;42.678;23.364;2023-07-02T09:13:48;94329.00;;;28.23;61.27
6134;BME280;3098;42.678;23.364;2023-07-02T09:16:23;94326.91;;;28.15;61.85
6134;BME280;3098;42.678;23.364;2023-07-02T09:18:57;94334.41;;;28.11;63.42
6134;BME280;3098;42.678;23.364;2023-07-02T09:21:27;94335.34;;;27.91;62.85
6134;BME280;3098;42.678;23.364;2023-07-02T09:23:54;94313.19;;;26.67;68.60
6134;BME280;3098;42.678;23.364;2023-07-02T09:26:22;94328.47;;;26.61;70.30
6134;BME280;3098;42.678;23.364;2023-07-02T09:28:50;94319.63;;;26.57;70.79
6134;BME280;3098;42.678;23.364;2023-07-02T09:31:17;94291.59;;;26.60;72.93
6134;BME280;3098;42.678;23.364;2023-07-02T09:33:44;94228.50;;;25.97;74.32
6134;BME280;3098;42.678;23.364;2023-07-02T09:36:11;94257.25;;;25.79;77.28
6134;BME280;3098;42.678;23.364;2023-07-02T09:38:41;94319.16;;;26.78;76.72
6134;BME280;3098;42.678;23.364;2023-07-02T09:41:08;94295.94;;;27.06;73.31
6134;BME280;3098;42.678;23.364;2023-07-02T09:43:35;94277.03;;;27.15;72.60
6134;BME280;3098;42.678;23.364;2023-07-02T09:46:02;94308.97;;;28.01;69.50
6134;BME280;3098;42.678;23.364;2023-07-02T09:48:33;94322.00;;;29.92;63.06
6134;BME280;3098;42.678;23.364;2023-07-02T09:51:02;94321.66;;;29.68;61.16
6134;BME280;3098;42.678;23.364;2023-07-02T09:53:30;94295.22;;;27.92;66.13
6134;BME280;3098;42.678;23.364;2023-07-02T09:55:59;94313.06;;;29.23;63.23
6134;BME280;3098;42.678;23.364;2023-07-02T09:58:26;94312.66;;;28.99;64.10
6134;BME280;3098;42.678;23.364;2023-07-02T10:00:54;94303.00;;;29.20;62.79
6134;BME280;3098;42.678;23.364;2023-07-02T10:03:31;94310.13;;;28.41;64.33
6134;BME280;3098;42.678;23.364;2023-07-02T10:06:05;94314.88;;;27.71;67.06
6134;BME280;3098;42.678;23.364;2023-07-02T10:08:32;94306.75;;;28.63;61.13
6134;BME280;3098;42.678;23.364;2023-07-02T10:11:11;94302.84;;;27.97;68.02
6134;BME280;3098;42.678;23.364;2023-07-02T10:13:57;94310.91;;;28.92;64.29
6134;BME280;3098;42.678;23.364;2023-07-02T10:16:47;94284.94;;;27.83;65.22
6134;BME280;3098;42.678;23.364;2023-07-02T10:19:30;94282.81;;;27.62;65.12
6134;BME280;3098;42.678;23.364;2023-07-02T10:22:11;94267.47;;;28.85;63.95
6134;BME280;3098;42.678;23.364;2023-07-02T10:24:50;94225.50;;;29.82;56.02
6134;BME280;3098;42.678;23.364;2023-07-02T10:27:19;94247.38;;;29.26;58.69
6134;BME280;3098;42.678;23.364;2023-07-02T10:29:49;94263.69;;;30.47;55.57
6134;BME280;3098;42.678;23.364;2023-07-02T10:32:26;94278.03;;;31.46;53.34
6134;BME280;3098;42.678;23.364;2023-07-02T10:34:54;94282.53;;;32.30;49.58
6134;BME280;3098;42.678;23.364;2023-07-02T10:37:24;94273.91;;;32.65;48.30
6134;BME280;3098;42.678;23.364;2023-07-02T10:39:50;94279.22;;;32.26;48.98
6134;BME280;3098;42.678;23.364;2023-07-02T10:42:20;94281.69;;;31.24;50.83
6134;BME280;3098;42.678;23.364;2023-07-02T10:44:50;94167.50;;;31.30;48.52
6134;BME280;3098;42.678;23.364;2023-07-02T10:47:19;94280.66;;;32.04;50.26
6134;BME280;3098;42.678;23.364;2023-07-02T10:49:46;94242.41;;;31.09;48.17
6134;BME280;3098;42.678;23.364;2023-07-02T10:52:13;94255.63;;;30.53;51.26
6134;BME280;3098;42.678;23.364;2023-07-02T10:54:41;94241.38;;;28.84;54.29
6134;BME280;3098;42.678;23.364;2023-07-02T10:57:09;94266.28;;;30.51;53.46
6134;BME280;3098;42.678;23.364;2023-07-02T10:59:38;94263.72;;;30.56;51.51
6134;BME280;3098;42.678;23.364;2023-07-02T11:02:06;94263.25;;;31.34;47.71
6134;BME280;3098;42.678;23.364;2023-07-02T11:04:32;94249.41;;;29.35;52.19
6134;BME280;3098;42.678;23.364;2023-07-02T11:07:00;94259.38;;;30.86;50.06
6134;BME280;3098;42.678;23.364;2023-07-02T11:09:27;94241.88;;;32.20;45.22
6134;BME280;3098;42.678;23.364;2023-07-02T11:11:55;94227.81;;;32.92;43.49
6134;BME280;3098;42.678;23.364;2023-07-02T11:14:30;94225.38;;;32.29;44.34
6134;BME280;3098;42.678;23.364;2023-07-02T11:17:02;94234.31;;;33.04;42.99
6134;BME280;3098;42.678;23.364;2023-07-02T11:19:31;94209.00;;;32.76;43.28
6134;BME280;3098;42.678;23.364;2023-07-02T11:21:58;94040.09;;;29.99;46.31
6134;BME280;3098;42.678;23.364;2023-07-02T11:24:31;94225.03;;;31.76;45.33
6134;BME280;3098;42.678;23.364;2023-07-02T11:26:58;94233.91;;;31.53;45.31
6134;BME280;3098;42.678;23.364;2023-07-02T11:29:25;94254.91;;;30.61;46.92
6134;BME280;3098;42.678;23.364;2023-07-02T11:31:52;94249.09;;;30.99;45.45
6134;BME280;3098;42.678;23.364;2023-07-02T11:34:22;94245.75;;;29.29;47.66
6134;BME280;3098;42.678;23.364;2023-07-02T11:36:50;94231.66;;;29.18;49.63
6134;BME280;3098;42.678;23.364;2023-07-02T11:39:19;94231.69;;;28.08;53.18
6134;BME280;3098;42.678;23.364;2023-07-02T11:41:47;94214.03;;;27.29;59.05
6134;BME280;3098;42.678;23.364;2023-07-02T11:44:15;94256.56;;;26.46;66.98
6134;BME280;3098;42.678;23.364;2023-07-02T11:46:42;94203.78;;;25.76;70.46
6134;BME280;3098;42.678;23.364;2023-07-02T11:49:10;94192.41;;;24.82;75.04
6134;BME280;3098;42.678;23.364;2023-07-02T11:51:38;94244.97;;;24.65;80.50
6134;BME280;3098;42.678;23.364;2023-07-02T11:54:06;94240.41;;;24.85;81.73
6134;BME280;3098;42.678;23.364;2023-07-02T11:56:33;94246.94;;;24.65;83.90
6134;BME280;3098;42.678;23.364;2023-07-02T11:59:00;94242.31;;;24.62;82.51
6134;BME280;3098;42.678;23.364;2023-07-02T12:01:27;94212.78;;;24.67;82.89
6134;BME280;3098;42.678;23.364;2023-07-02T12:03:54;94199.31;;;25.06;79.00
6134;BME280;3098;42.678;23.364;2023-07-02T12:06:21;94254.63;;;25.55;77.17
6134;BME280;3098;42.678;23.364;2023-07-02T12:08:49;94256.75;;;25.84;72.92
6134;BME280;3098;42.678;23.364;2023-07-02T12:11:16;94235.59;;;26.11;69.79
6134;BME280;3098;42.678;23.364;2023-07-02T12:13:43;94271.22;;;26.85;64.50
6134;BME280;3098;42.678;23.364;2023-07-02T12:16:10;94273.78;;;26.23;61.54
6134;BME280;3098;42.678;23.364;2023-07-02T12:18:38;94267.06;;;25.92;63.28
6134;BME280;3098;42.678;23.364;2023-07-02T12:21:05;94277.25;;;25.68;64.83
6134;BME280;3098;42.678;23.364;2023-07-02T12:23:32;94224.47;;;25.69;66.11
6134;BME280;3098;42.678;23.364;2023-07-02T12:26:00;94268.34;;;25.68;67.36
6134;BME280;3098;42.678;23.364;2023-07-02T12:28:27;94271.81;;;25.68;70.46
6134;BME280;3098;42.678;23.364;2023-07-02T12:30:54;94280.81;;;25.65;74.79
6134;BME280;3098;42.678;23.364;2023-07-02T12:33:21;94254.63;;;25.12;86.00
6134;BME280;3098;42.678;23.364;2023-07-02T12:35:48;94266.66;;;24.42;93.19
6134;BME280;3098;42.678;23.364;2023-07-02T12:38:16;94276.41;;;24.09;100.00
6134;BME280;3098;42.678;23.364;2023-07-02T12:40:43;94095.06;;;22.88;100.00
6134;BME280;3098;42.678;23.364;2023-07-02T12:43:11;94136.19;;;23.06;100.00
6134;BME280;3098;42.678;23.364;2023-07-02T12:45:38;94278.91;;;23.66;100.00
6134;BME280;3098;42.678;23.364;2023-07-02T12:48:05;94221.91;;;23.47;100.00
6134;BME280;3098;42.678;23.364;2023-07-02T12:50:32;94272.31;;;23.97;100.00
6134;BME280;3098;42.678;23.364;2023-07-02T12:52:59;94268.50;;;24.48;100.00
6134;BME280;3098;42.678;23.364;2023-07-02T12:55:26;94255.31;;;24.74;100.00
6134;BME280;3098;42.678;23.364;2023-07-02T12:57:52;94262.97;;;25.02;100.00
6134;BME280;3098;42.678;23.364;2023-07-02T13:00:21;94256.84;;;24.75;100.00
6134;BME280;3098;42.678;23.364;2023-07-02T13:02:48;94269.59;;;25.21;99.19
6134;BME280;3098;42.678;23.364;2023-07-02T13:05:15;94236.97;;;25.24;98.55
6134;BME280;3098;42.678;23.364;2023-07-02T13:07:42;94261.78;;;25.85;96.71
6134;BME280;3098;42.678;23.364;2023-07-02T13:10:09;94179.41;;;25.72;95.31